Latest Weather Observations for Cessnock Airport

IDN60801

Issued at 9:35 am EST Wednesday 3 September 2014 (issued every 30 minutes, with the page automatically refreshed every 10 minutes)

About weather observations | Map of weather stations | Latest weather observations for NSW | Other Formats
Station Details ID: 061260 Name: CESSNOCK AIRPORT AWS Lat: -32.79 Lon: 151.34 Height: 61.0 m
Data from the previous 72 hours. | See also: Recent months at Cessnock Airport
Date/Time
EST
Temp
°C
App
Temp
°C
Dew
Point
Rel
Hum
%
Delta-T
°C
Wind Press
QNH
hPa
Press
MSL
hPa
Rain
since 9 am
mm
Dir
 
Spd
km/h
Gust
km/h
Spd
kts
Gust
kts
03/09:33am 13.9 6.8 1.5 43 5.4 SW 28 46 15 25 1012.8 1012.7 0.0
03/09:30am 13.5 6.7 0.9 42 5.4 SW 26 39 14 21 1012.8 1012.7 0.0
03/09:00am 13.5 6.4 1.5 44 5.2 SSW 28 46 15 25 1012.7 1012.6 3.0
03/08:36am 13.3 5.5 1.6 45 5.0 SW 32 50 17 27 1012.7 1012.6 3.0
03/08:30am 12.8 4.7 0.9 44 5.0 SW 33 50 18 27 1012.7 1012.6 3.0
03/08:00am 12.0 4.8 0.5 45 4.8 SW 28 56 15 30 1012.9 1012.8 3.0
03/07:30am 11.7 4.4 -0.1 44 4.8 SW 28 48 15 26 1012.6 1012.5 3.0
03/07:03am 11.3 4.0 -0.2 45 4.7 SW 28 46 15 25 1012.0 1011.9 3.0
03/07:00am 11.3 3.6 -0.2 45 4.7 SW 30 46 16 25 1012.1 1012.0 3.0
03/06:30am 11.3 4.0 -0.2 45 4.7 SW 28 46 15 25 1011.6 1011.5 3.0
03/06:00am 11.1 3.9 0.8 49 4.3 SW 28 46 15 25 1011.3 1011.2 3.0
03/05:43am 11.0 3.8 1.0 50 4.2 SW 28 46 15 25 1011.1 - 3.0
03/05:30am 10.8 4.4 0.8 50 4.1 WSW 24 48 13 26 1011.1 - 3.0
03/05:00am 11.1 5.1 0.8 49 4.3 WSW 22 35 12 19 1011.0 1010.9 3.0
03/04:30am 10.8 5.4 1.4 52 3.9 WSW 19 30 10 16 1010.8 - 3.0
03/04:00am 10.8 5.3 1.6 53 3.9 WSW 20 37 11 20 1010.5 1010.4 3.0
03/03:30am 10.9 5.3 1.4 52 4.0 WSW 20 39 11 21 1010.2 - 3.0
03/03:00am 10.6 4.7 1.9 55 3.7 WSW 22 41 12 22 1009.7 1009.6 3.0
03/02:30am 10.0 3.8 2.1 58 3.3 WSW 24 43 13 23 1010.1 - 3.0
03/02:00am 9.6 5.6 3.1 64 2.8 W 13 28 7 15 1010.4 1010.3 3.0
03/01:30am 9.2 4.6 3.8 69 2.4 W 17 28 9 15 1010.6 - 3.0
03/01:00am 8.9 3.8 4.3 73 2.0 W 20 35 11 19 1011.0 1010.9 3.0
03/12:30am 8.7 3.9 4.7 76 1.8 WSW 19 39 10 21 1011.2 - 2.8
03/12:00am 9.0 3.6 4.6 74 2.0 SW 22 43 12 23 1011.5 1011.4 2.8
 
Date/Time
EST
Temp
°C
App
Temp
°C
Dew
Point
Rel
Hum
%
Delta-T
°C
Wind Press
QNH
hPa
Press
MSL
hPa
Rain
since 9 am
mm
Dir
 
Spd
km/h
Gust
km/h
Spd
kts
Gust
kts
02/11:30pm 9.1 3.3 4.5 73 2.0 SW 24 39 13 21 1011.8 - 2.4
02/11:24pm 9.4 2.8 4.2 70 2.3 WSW 28 46 15 25 1011.7 - 2.4
02/11:00pm 10.1 4.7 4.3 67 2.6 SW 22 35 12 19 1011.6 1011.5 2.4
02/10:30pm 11.5 5.2 3.8 59 3.4 SSW 26 32 14 17 1011.4 - 2.4
02/10:00pm 12.2 9.0 2.9 53 4.1 W 9 13 5 7 1011.1 1011.0 2.4
02/09:30pm 12.4 8.8 2.8 52 4.2 WNW 11 15 6 8 1010.8 - 2.4
02/09:00pm 12.2 8.6 3.2 54 4.0 W 11 13 6 7 1010.7 1010.6 2.4
02/08:30pm 12.2 8.3 3.4 55 3.9 WNW 13 20 7 11 1010.9 - 2.4
02/08:00pm 12.0 8.2 4.0 58 3.6 NW 13 26 7 14 1010.7 1010.6 2.4
02/07:30pm 11.4 8.9 4.6 63 3.1 NNW 7 11 4 6 1010.4 - 2.4
02/07:00pm 11.6 8.7 4.8 63 3.1 W 9 15 5 8 1010.2 1010.1 2.4
02/06:30pm 12.9 7.9 4.8 58 3.7 SSW 20 30 11 16 1010.2 - 2.4
02/06:00pm 12.8 8.6 5.5 61 3.4 S 17 26 9 14 1009.6 1009.5 2.4
02/05:30pm 13.6 10.1 7.4 66 3.0 S 15 24 8 13 1008.9 - 2.4
02/05:00pm 14.3 10.9 7.6 64 3.3 SSE 15 19 8 10 1008.0 1007.9 2.4
02/04:30pm 15.0 13.0 7.1 59 3.9 S 7 13 4 7 1007.4 - 2.4
02/04:00pm 16.4 13.9 8.1 58 4.2 SE 11 20 6 11 1007.1 1007.0 2.4
02/03:30pm 16.7 14.1 6.2 50 5.1 SSW 9 20 5 11 1006.8 - 2.4
02/03:00pm 18.1 13.2 3.9 39 6.7 WSW 19 28 10 15 1006.6 1006.5 2.4
02/02:30pm 18.0 14.2 5.9 45 5.9 WNW 15 26 8 14 1006.6 - 2.4
02/02:00pm 17.3 13.9 9.0 58 4.3 W 17 26 9 14 1006.7 1006.6 2.4
02/01:30pm 15.5 12.8 11.7 78 2.1 NNW 17 24 9 13 1007.0 - 2.4
02/01:00pm 13.2 9.8 10.7 85 1.3 NW 19 26 10 14 1007.4 1007.3 2.4
02/12:30pm 12.5 10.2 11.6 94 0.5 NW 15 24 8 13 1007.7 - 2.2
02/12:00pm 12.3 9.5 10.0 86 1.2 NNW 15 28 8 15 1008.2 1008.1 2.2
02/11:30am 15.5 12.1 7.8 60 3.9 NNW 15 20 8 11 1007.7 - 0.0
02/11:00am 16.5 14.9 8.0 57 4.3 N 6 11 3 6 1008.2 1008.1 0.0
02/10:30am 16.3 14.0 7.3 55 4.5 N 9 11 5 6 1008.8 - 0.0
02/10:00am 16.0 13.8 7.7 58 4.2 NNW 9 13 5 7 1009.2 1009.1 0.0
02/09:30am 15.4 12.8 7.9 61 3.8 NNE 11 13 6 7 1009.4 - 0.0
02/09:00am 15.4 13.7 8.4 63 3.6 N 7 15 4 8 1009.5 1009.4 0.0
02/08:30am 15.6 12.3 6.3 54 4.5 WSW 13 17 7 9 1009.8 - 0.0
02/08:00am 15.2 13.0 7.7 61 3.7 W 9 13 5 7 1010.1 1010.0 0.0
02/07:30am 13.1 11.5 8.8 75 2.2 ENE 7 9 4 5 1009.9 - 0.0
02/07:00am 11.4 10.4 10.3 93 0.6 E 6 9 3 5 1009.6 1009.5 0.0
02/06:30am 11.0 9.7 9.9 93 0.6 WSW 7 11 4 6 1009.6 - 0.0
02/06:00am 11.1 10.9 10.3 95 0.4 N 2 7 1 4 1008.9 1008.8 0.0
02/05:30am 11.0 10.0 10.2 95 0.4 N 6 7 3 4 1008.5 - 0.0
02/05:00am 10.6 10.2 9.8 95 0.4 N 2 7 1 4 1008.3 1008.2 0.0
02/04:30am 10.6 10.1 9.2 91 0.7 SW 2 7 1 4 1008.2 - 0.0
02/04:00am 10.7 10.4 8.5 86 1.1 CALM 0 0 0 0 1008.1 1008.0 0.0
02/03:30am 10.9 10.6 8.5 85 1.2 CALM 0 0 0 0 1008.2 - 0.0
02/03:00am 11.2 9.6 8.2 82 1.5 S 6 7 3 4 1008.6 1008.5 0.0
02/02:30am 11.4 10.0 8.8 84 1.3 SE 6 11 3 6 1008.7 - 0.0
02/02:00am 10.9 8.9 8.7 86 1.1 SSE 9 13 5 7 1009.3 1009.2 0.0
02/01:30am 11.7 9.5 9.4 86 1.2 N 11 13 6 7 1009.6 - 0.0
02/01:00am 11.0 10.7 8.6 85 1.2 CALM 0 0 0 0 1010.2 1010.1 0.0
02/12:30am 11.5 11.1 8.4 81 1.5 CALM 0 0 0 0 1010.7 - 0.0
02/12:00am 11.4 11.0 8.3 81 1.5 CALM 0 0 0 0 1010.9 1010.8 0.0
 
Date/Time
EST
Temp
°C
App
Temp
°C
Dew
Point
Rel
Hum
%
Delta-T
°C
Wind Press
QNH
hPa
Press
MSL
hPa
Rain
since 9 am
mm
Dir
 
Spd
km/h
Gust
km/h
Spd
kts
Gust
kts
01/11:30pm 12.6 11.1 9.1 79 1.8 N 7 9 4 5 1011.2 - 0.0
01/11:00pm 12.8 11.3 9.3 79 1.8 N 7 9 4 5 1011.3 1011.2 0.0
01/10:30pm 11.8 10.4 9.0 83 1.4 N 6 9 3 5 1011.8 - 0.0
01/10:00pm 11.4 11.0 8.3 81 1.5 CALM 0 0 0 0 1012.1 1012.0 0.0
01/09:30pm 11.4 11.0 8.3 81 1.5 CALM 0 0 0 0 1012.0 - 0.0
01/09:00pm 11.3 10.8 8.0 80 1.6 CALM 0 0 0 0 1012.4 1012.3 0.0
01/08:30pm 11.7 11.3 8.2 79 1.7 CALM 0 0 0 0 1012.5 - 0.0
01/08:00pm 11.6 11.1 7.7 77 1.9 CALM 0 0 0 0 1012.4 1012.3 0.0
01/07:30pm 13.0 12.7 8.7 75 2.2 CALM 0 0 0 0 1012.3 - 0.0
01/07:00pm 13.8 12.6 8.2 69 2.8 WSW 4 7 2 4 1012.0 1011.9 0.0
01/06:30pm 16.5 15.6 7.7 56 4.4 WNW 2 6 1 3 1011.7 - 0.0
01/06:00pm 18.7 16.8 6.5 45 6.1 NNW 6 9 3 5 1011.6 1011.5 0.0
01/05:30pm 20.0 17.3 7.4 44 6.5 N 11 17 6 9 1011.4 - 0.0
01/05:00pm 20.9 18.8 8.2 44 6.6 N 9 13 5 7 1011.4 1011.3 0.0
01/04:30pm 21.6 18.1 7.4 40 7.3 NNW 15 26 8 14 1011.3 - 0.0
01/04:00pm 22.5 19.1 7.5 38 7.8 NNW 15 24 8 13 1011.2 1011.1 0.0
01/03:30pm 22.5 18.6 7.1 37 8.0 NNW 17 26 9 14 1011.3 - 0.0
01/03:00pm 22.0 17.4 5.4 34 8.3 NW 19 32 10 17 1011.5 1011.4 0.0
01/02:30pm 22.7 17.8 5.2 32 8.8 NW 20 32 11 17 1011.9 - 0.0
01/02:00pm 21.8 17.1 6.1 36 7.9 NNW 20 32 11 17 1012.3 1012.2 0.0
01/01:30pm 21.5 16.1 4.6 33 8.3 NNW 22 33 12 18 1013.0 - 0.0
01/01:00pm 21.8 16.6 5.7 35 8.1 NW 22 35 12 19 1013.3 1013.3 0.0
01/12:30pm 21.8 17.6 7.6 40 7.4 WNW 19 30 10 16 1013.8 - 0.0
01/12:00pm 21.4 17.5 6.9 39 7.4 NW 17 28 9 15 1014.3 1014.3 0.0
01/11:30am 20.4 17.1 8.1 45 6.4 NNW 15 24 8 13 1014.6 - 0.0
01/11:00am 19.5 16.5 9.4 52 5.4 NW 15 20 8 11 1015.5 1015.5 0.0
01/10:30am 18.0 14.7 9.6 58 4.4 N 17 24 9 13 1015.9 - 0.0
01/10:00am 16.6 12.9 9.3 62 3.8 NNW 19 24 10 13 1016.6 1016.6 0.0
01/09:30am 15.6 12.5 10.2 70 2.8 NNW 17 22 9 12 1017.2 - 0.0
01/09:00am 14.7 13.2 11.8 83 1.6 NNW 11 20 6 11 1017.5 1017.6 0.0
01/08:30am 12.4 13.2 12.4 100 0.0 CALM 0 0 0 0 1017.7 - 0.0
01/08:00am 9.8 9.0 9.8 100 0.0 WNW 4 7 2 4 1017.6 1017.7 0.0
01/07:30am 8.7 8.4 8.7 100 0.0 CALM 0 0 0 0 1017.5 - 0.0
01/07:00am 7.2 6.6 7.2 100 0.0 CALM 0 4 0 2 1017.4 1017.5 0.0
01/06:30am 6.7 5.9 6.7 100 0.0 CALM 0 0 0 0 1017.2 - 0.0
01/06:00am 6.4 5.6 6.4 100 0.0 CALM 0 0 0 0 1017.0 1017.1 0.0
01/05:30am 6.6 5.1 6.6 100 0.0 W 4 6 2 3 1016.7 - 0.0
01/05:00am 6.3 5.5 6.3 100 0.0 CALM 0 0 0 0 1016.5 1016.6 0.0
01/04:30am 6.3 5.5 6.3 100 0.0 CALM 0 0 0 0 1016.2 - 0.0
01/04:00am 6.9 6.2 6.9 100 0.0 CALM 0 0 0 0 1016.0 1016.0 0.0
01/03:30am 6.9 6.2 6.9 100 0.0 CALM 0 0 0 0 1016.0 - 0.0
01/03:00am 6.5 5.7 6.5 100 0.0 CALM 0 0 0 0 1016.1 1016.1 0.0
01/02:30am 6.4 5.2 6.4 100 0.0 S 2 6 1 3 1016.6 - 0.0
01/02:00am 6.4 5.6 6.4 100 0.0 CALM 0 0 0 0 1016.7 1016.8 0.0
01/01:30am 7.2 6.6 7.2 100 0.0 CALM 0 0 0 0 1017.0 - 0.0
01/01:00am 7.2 6.6 7.2 100 0.0 CALM 0 0 0 0 1017.3 1017.4 0.0
01/12:30am 7.6 7.0 7.6 100 0.0 CALM 0 0 0 0 1017.3 - 0.0
01/12:00am 8.2 7.0 8.2 100 0.0 SSE 4 7 2 4 1017.6 1017.7 0.0
 
Date/Time
EST
Temp
°C
App
Temp
°C
Dew
Point
Rel
Hum
%
Delta-T
°C
Wind Press
QNH
hPa
Press
MSL
hPa
Rain
since 9 am
mm
Dir
 
Spd
km/h
Gust
km/h
Spd
kts
Gust
kts
31/11:30pm 8.3 7.9 8.3 100 0.0 CALM 0 6 0 3 1017.6 - 0.0
31/11:00pm 9.7 8.5 9.7 100 0.0 SSW 6 7 3 4 1017.8 1017.9 0.0
31/10:30pm 9.9 8.6 9.9 100 0.0 SW 7 9 4 5 1017.8 - 0.0
31/10:00pm 10.4 9.2 10.4 100 0.0 SW 7 11 4 6 1018.1 1018.2 0.0
31/09:30pm 10.2 9.1 9.9 98 0.2 SSW 6 9 3 5 1018.0 - 0.0
31/09:00pm 10.9 9.4 10.6 98 0.2 WSW 9 13 5 7 1018.1 1018.2 0.0
31/08:30pm 11.3 9.2 11.0 98 0.2 WSW 13 13 7 7 1018.0 - 0.0
31/08:00pm 11.6 10.5 10.8 95 0.4 WSW 7 9 4 5 1017.8 1017.9 0.0
31/07:30pm 11.8 10.3 9.0 83 1.4 WSW 7 11 4 6 1017.6 - 0.0
31/07:00pm 13.1 12.2 9.4 78 1.9 SSW 4 7 2 4 1017.4 1017.5 0.0
31/06:30pm 15.3 14.7 10.5 73 2.5 E 4 7 2 4 1017.1 - 0.0
31/06:00pm 16.1 15.0 10.6 70 2.9 E 7 15 4 8 1017.0 1017.1 0.0
31/05:30pm 17.3 14.8 10.9 66 3.4 E 15 19 8 10 1016.8 - 0.0
31/05:00pm 18.8 17.2 8.7 52 5.3 N 7 9 4 5 1016.4 1016.4 0.0
31/04:30pm 20.3 18.5 7.3 43 6.7 NNE 6 9 3 5 1016.3 - 0.0
31/04:00pm 20.5 18.5 8.5 46 6.3 N 9 11 5 6 1016.4 1016.4 0.0
31/03:30pm 19.5 18.7 8.2 48 5.9 NNW 2 7 1 4 1016.5 - 0.0
31/03:00pm 20.1 18.3 7.8 45 6.3 NE 7 9 4 5 1016.5 1016.6 0.0
31/02:30pm 19.4 19.0 8.1 48 5.8 CALM 0 0 0 0 1016.8 - 0.0
31/02:00pm 19.4 18.0 8.7 50 5.6 NNW 6 9 3 5 1017.1 1017.2 0.0
31/01:30pm 20.8 19.1 8.4 45 6.5 NW 7 13 4 7 1017.4 - 0.0
31/01:00pm 19.7 18.0 9.9 53 5.2 SW 9 13 5 7 1017.8 1017.9 0.0
31/12:30pm 19.7 18.3 9.0 50 5.6 SSW 6 9 3 5 1018.2 - 0.0
31/12:00pm 19.9 18.1 9.5 51 5.5 WSW 9 19 5 10 1018.7 1018.8 0.0
31/11:30am 19.8 18.7 10.0 53 5.3 SW 6 9 3 5 1019.1 - 0.0
31/11:00am 18.5 16.3 9.3 55 4.8 SSW 11 17 6 9 1019.5 1019.6 0.0
31/10:30am 18.0 15.5 9.6 58 4.4 S 13 20 7 11 1019.9 - 0.0
31/10:00am 17.2 14.1 8.9 58 4.3 S 15 19 8 10 1020.1 1020.2 0.0

Other Formats:

Comma delimited format used in spreadsheet applications
http://www.bom.gov.au/fwo/IDN60801/IDN60801.95771.axf

JavaScript Object Notation format (JSON) in row-major order
http://www.bom.gov.au/fwo/IDN60801/IDN60801.95771.json